Time;durP1;ratioP1;P1;durP2;ratioP2;P2;SDS_P1;SDS_P2;PMS_P1;PMS_P2;Temp;Humidity;BMP_temperature;BMP_pressure;BME280_temperature;BME280_humidity;BME280_pressure;Samples;Min_cycle;Max_cycle;Signal;HPM_P1;HPM_P2
2021/12/02 05:02:13;;;;;;;;;8.67;5.00;;;;;9.12;57.18;100322.94;5132790;22;45575;-82
2021/12/02 05:04:39;;;;;;;;;3.67;3.67;;;;;9.00;57.49;100324.34;5018156;28;45546;-81
2021/12/02 05:07:04;;;;;;;;;13.33;10.67;;;;;9.18;56.92;100355.44;5018086;28;45679;-82
2021/12/02 05:09:29;;;;;;;;;5.00;5.00;;;;;9.23;56.63;100390.66;5018839;28;45411;-81
2021/12/02 05:11:55;;;;;;;;;2.00;2.00;;;;;9.04;57.16;100347.19;5019769;28;45390;-81
2021/12/02 05:14:20;;;;;;;;;2.00;2.00;;;;;8.94;57.33;100336.09;5017930;28;48147;-81
2021/12/02 05:16:45;;;;;;;;;1.67;1.67;;;;;9.05;57.09;100372.84;5005561;28;45464;-82
2021/12/02 05:19:11;;;;;;;;;1.67;1.00;;;;;8.09;57.37;100213.97;5023841;28;45431;-82
2021/12/02 05:21:36;;;;;;;;;2.00;0.00;;;;;9.08;57.49;100376.25;5019229;28;45495;-82
2021/12/02 05:24:02;;;;;;;;;1.33;1.33;;;;;8.70;57.53;100319.41;5016840;28;45954;-82
2021/12/02 05:26:27;;;;;;;;;2.00;2.00;;;;;9.05;58.05;100384.34;5007827;28;45433;-82
2021/12/02 05:28:54;;;;;;;;;1.00;1.00;;;;;9.02;57.59;100387.13;5020075;28;45387;-83
2021/12/02 05:31:21;;;;;;;;;2.00;1.00;;;;;8.61;57.94;100331.28;5020569;28;45351;-83
2021/12/02 05:33:47;;;;;;;;;2.67;2.00;;;;;8.96;57.80;100395.34;5018683;28;46494;-83
2021/12/02 05:36:13;;;;;;;;;2.00;2.00;;;;;8.82;57.93;100384.44;5018451;28;45346;-84
2021/12/02 05:38:40;;;;;;;;;1.00;1.00;;;;;8.54;58.04;100350.22;5018517;28;45380;-82
2021/12/02 05:41:05;;;;;;;;;1.00;1.00;;;;;8.50;57.71;100340.63;5037129;28;45419;-84
2021/12/02 05:43:30;;;;;;;;;2.00;2.00;;;;;8.53;57.72;100349.34;5031100;28;47586;-83
2021/12/02 05:45:56;;;;;;;;;2.00;2.00;;;;;8.57;57.47;100352.72;5018076;28;45542;-82
2021/12/02 05:48:22;;;;;;;;;2.00;2.00;;;;;8.61;57.57;100365.81;5020075;28;46367;-82
2021/12/02 05:50:47;;;;;;;;;3.00;2.00;;;;;8.29;57.33;100318.44;5017587;28;45435;-82
2021/12/02 05:53:13;;;;;;;;;3.00;1.67;;;;;8.55;57.94;100367.91;5011271;28;46419;-82
2021/12/02 05:55:38;;;;;;;;;3.33;1.67;;;;;7.64;57.44;100235.31;5024261;28;45491;-83
2021/12/02 05:58:06;;;;;;;;;6.00;5.00;;;;;8.67;57.88;100407.22;5038330;28;45428;-83
2021/12/02 06:00:33;;;;;;;;;7.00;6.00;;;;;8.29;57.71;100350.31;5038130;28;45237;-83
2021/12/02 06:02:59;;;;;;;;;5.00;5.00;;;;;8.53;57.69;100393.66;5017188;28;46218;-84
2021/12/02 06:05:25;;;;;;;;;7.00;6.33;;;;;8.61;57.73;100413.63;5022226;28;45518;-83
2021/12/02 06:07:52;;;;;;;;;5.00;5.00;;;;;8.51;57.70;100404.31;5034449;28;45400;-83
2021/12/02 06:10:19;;;;;;;;;5.00;4.00;;;;;8.35;57.35;100380.13;5010956;28;45787;-82
2021/12/02 06:12:45;;;;;;;;;4.67;2.00;;;;;8.52;57.42;100410.50;5018804;28;45274;-84
2021/12/02 06:15:11;;;;;;;;;5.00;5.00;;;;;8.11;57.49;100343.97;5022524;28;45574;-89
2021/12/02 06:17:38;;;;;;;;;2.33;2.00;;;;;8.12;57.43;100341.25;5019867;28;45511;-85
2021/12/02 06:20:04;;;;;;;;;2.33;2.33;;;;;7.95;57.54;100318.03;5024753;28;45643;-85
2021/12/02 06:22:30;;;;;;;;;4.00;2.00;;;;;8.21;57.43;100363.91;5029270;28;45325;-86
2021/12/02 06:27:53;;;;;;;;;3.33;2.00;;;;;8.25;57.61;100370.81;5017521;28;45409;-85
2021/12/02 06:30:22;;;;;;;;;1.00;1.00;;;;;7.84;57.14;100299.00;5017760;28;45377;-87
2021/12/02 06:32:48;;;;;;;;;2.00;2.00;;;;;8.15;57.17;100362.38;5017700;28;46749;-82
2021/12/02 06:35:14;;;;;;;;;2.33;2.33;;;;;8.22;57.43;100374.47;5017679;28;45476;-92
2021/12/02 06:37:40;;;;;;;;;3.00;3.00;;;;;8.48;57.24;100416.88;5013116;28;45310;-85
2021/12/02 06:40:07;;;;;;;;;2.33;2.33;;;;;8.47;56.91;100420.44;5009490;28;45521;-85
2021/12/02 06:42:33;;;;;;;;;5.00;3.67;;;;;8.08;56.84;100354.69;5018485;28;45859;-84
2021/12/02 06:44:59;;;;;;;;;3.00;3.00;;;;;7.88;56.93;100335.13;5015500;28;45431;-87
2021/12/02 06:47:38;;;;;;;;;2.00;2.00;;;;;7.80;57.20;100334.56;5016880;28;45416;-90
2021/12/02 06:50:05;;;;;;;;;2.00;2.00;;;;;7.73;56.84;100333.09;5018653;28;45433;-91
2021/12/02 06:52:31;;;;;;;;;2.00;1.00;;;;;8.30;56.76;100427.25;5033187;28;48022;-90
2021/12/02 06:54:57;;;;;;;;;2.33;2.33;;;;;8.02;57.12;100412.41;5014824;28;45500;-90
2021/12/02 06:57:23;;;;;;;;;3.33;2.00;;;;;7.47;57.21;100320.78;5029761;28;45491;-89
2021/12/02 06:59:48;;;;;;;;;2.67;2.67;;;;;7.46;56.99;100311.13;5008463;28;45381;-90
2021/12/02 07:02:14;;;;;;;;;5.33;2.67;;;;;7.74;57.29;100358.69;5022243;28;47247;-89
2021/12/02 07:04:40;;;;;;;;;3.00;3.00;;;;;7.50;56.81;100321.56;5007662;28;45356;-90
2021/12/02 07:07:05;;;;;;;;;31.25;30.25;;;;;7.66;56.67;100339.53;5032760;28;45425;-92
2021/12/02 07:09:31;;;;;;;;;4.00;2.67;;;;;8.16;57.09;100426.94;5029146;28;45436;-91
2021/12/02 07:11:57;;;;;;;;;3.67;2.67;;;;;7.89;56.70;100367.81;5020975;28;45586;-87
2021/12/02 07:14:24;;;;;;;;;3.33;3.00;;;;;8.52;56.51;100471.59;5010367;28;45965;-89
2021/12/02 07:16:49;;;;;;;;;2.33;2.00;;;;;8.15;55.95;100412.81;5020759;28;45399;-86
2021/12/02 07:19:15;;;;;;;;;2.00;2.00;;;;;8.12;55.91;100417.34;5017402;28;45479;-85
2021/12/02 07:21:41;;;;;;;;;4.00;2.00;;;;;8.13;56.05;100417.31;5021814;28;48300;-87
2021/12/02 07:24:09;;;;;;;;;4.00;2.33;;;;;8.62;56.17;100513.69;5017218;28;45534;-87
2021/12/02 07:26:40;;;;;;;;;5.33;2.33;;;;;8.52;55.65;100499.03;5012711;28;45538;-87
2021/12/02 07:29:05;;;;;;;;;2.00;2.00;;;;;8.51;55.92;100499.94;5018933;28;45345;-84
2021/12/02 07:31:31;;;;;;;;;4.00;3.00;;;;;8.51;55.98;100510.56;5017088;28;46094;-84
2021/12/02 07:33:57;;;;;;;;;5.67;4.00;;;;;8.14;55.58;100442.06;5017374;28;46581;-89
2021/12/02 07:36:23;;;;;;;;;6.00;4.00;;;;;8.55;55.88;100511.31;5025661;28;45408;-88
2021/12/02 07:38:50;;;;;;;;;4.00;4.00;;;;;8.56;55.94;100513.91;5015107;28;45566;-83
2021/12/02 07:41:16;;;;;;;;;5.00;3.33;;;;;8.27;56.32;100456.59;5031501;28;45439;-85
2021/12/02 07:43:41;;;;;;;;;3.67;3.00;;;;;8.55;56.29;100506.88;5016983;28;45878;-83
2021/12/02 07:46:08;;;;;;;;;3.00;3.00;;;;;8.51;56.59;100499.94;5024700;28;45544;-88
2021/12/02 07:48:35;;;;;;;;;4.33;4.00;;;;;8.38;55.69;100467.66;5028536;28;45357;-85
2021/12/02 07:51:07;;;;;;;;;6.33;6.00;;;;;8.37;56.46;100465.91;5028472;28;48180;-87
2021/12/02 07:53:33;;;;;;;;;6.67;6.67;;;;;8.08;56.47;100424.59;5018466;28;45419;-94
2021/12/02 07:56:03;;;;;;;;;2.33;2.00;;;;;8.67;56.26;100516.16;5047881;28;45377;-90
2021/12/02 07:58:29;;;;;;;;;3.00;3.00;;;;;8.03;56.31;100427.41;5027513;28;45471;-87
2021/12/02 08:00:59;;;;;;;;;4.00;2.33;;;;;8.56;56.11;100483.81;5023442;28;46134;-91
2021/12/02 08:03:26;;;;;;;;;7.00;4.00;;;;;8.00;55.79;100382.41;5029031;28;45457;-87
2021/12/02 08:05:52;;;;;;;;;6.00;5.00;;;;;8.33;55.93;100447.50;5027450;28;45543;-87
2021/12/02 08:08:17;;;;;;;;;5.33;4.33;;;;;7.96;56.22;100377.28;5030114;28;45416;-89
2021/12/02 08:10:44;;;;;;;;;8.00;6.33;;;;;8.88;55.96;100538.34;5026923;28;46342;-87
2021/12/02 08:13:09;;;;;;;;;12.67;9.67;;;;;8.91;55.90;100529.38;5029377;28;45475;-88
2021/12/02 08:15:35;;;;;;;;;12.00;10.00;;;;;8.88;55.60;100525.91;5036369;28;45428;-87
2021/12/02 08:18:00;;;;;;;;;5.00;5.00;;;;;8.97;55.90;100540.63;5020895;28;45597;-87
2021/12/02 08:20:27;;;;;;;;;5.00;3.33;;;;;8.59;55.54;100468.66;5033010;28;46249;-86
2021/12/02 08:22:53;;;;;;;;;2.67;2.67;;;;;8.49;55.24;100455.78;5032793;28;45759;-87
2021/12/02 08:25:20;;;;;;;;;10.67;7.67;;;;;8.16;55.30;100390.63;5024256;28;45417;-85
2021/12/02 08:27:47;;;;;;;;;7.33;5.00;;;;;8.70;54.78;100499.22;5030180;28;45819;-87
2021/12/02 08:30:15;;;;;;;;;6.33;6.00;;;;;8.60;55.23;100472.16;5025044;28;47607;-84
2021/12/02 08:32:42;;;;;;;;;40.25;30.50;;;;;9.10;54.63;100554.28;5026262;28;45491;-84
2021/12/02 08:35:10;;;;;;;;;13.67;11.33;;;;;8.63;54.89;100480.84;5024489;28;45455;-87
2021/12/02 08:37:40;;;;;;;;;12.33;9.67;;;;;9.15;54.73;100562.06;5025587;28;45516;-87
2021/12/02 08:40:10;;;;;;;;;6.33;5.00;;;;;8.51;54.74;100464.56;5019046;28;47134;-92
2021/12/02 08:42:36;;;;;;;;;10.33;4.67;;;;;8.83;54.62;100514.63;5022810;28;45462;-88
2021/12/02 08:45:02;;;;;;;;;10.33;9.67;;;;;8.79;54.28;100510.34;5025906;28;45408;-90
2021/12/02 08:47:28;;;;;;;;;13.00;12.00;;;;;8.98;54.64;100544.16;5028140;28;45387;-90
2021/12/02 08:49:55;;;;;;;;;18.00;15.00;;;;;8.95;54.36;100546.94;5026907;28;48077;-89
2021/12/02 08:52:26;;;;;;;;;20.00;18.00;;;;;8.74;54.35;100496.38;5023747;28;45355;-87
2021/12/02 08:54:52;;;;;;;;;27.67;25.00;;;;;9.23;54.68;100570.63;5022138;28;45683;-84
2021/12/02 08:57:20;;;;;;;;;18.00;15.33;;;;;9.24;54.71;100573.19;5028008;28;45531;-85
2021/12/02 08:59:48;;;;;;;;;10.00;10.00;;;;;8.93;54.66;100522.22;5036858;28;45351;-85
2021/12/02 09:02:13;;;;;;;;;11.00;10.00;;;;;9.27;54.25;100588.16;5024664;28;45582;-85
2021/12/02 09:04:39;;;;;;;;;7.67;7.00;;;;;9.33;54.10;100592.38;5026544;28;46082;-84
2021/12/02 09:07:06;;;;;;;;;12.33;9.00;;;;;9.36;54.52;100597.56;5028254;28;45618;-85
2021/12/02 09:09:31;;;;;;;;;18.67;18.67;;;;;9.41;54.65;100600.91;5029049;28;47155;-85
2021/12/02 09:11:57;;;;;;;;;15.33;14.00;;;;;9.30;54.56;100570.28;5018829;28;46651;-86
2021/12/02 09:14:23;;;;;;;;;15.00;12.67;;;;;9.22;54.32;100551.13;5018286;28;45643;-86
2021/12/02 09:16:51;;;;;;;;;4.33;4.33;;;;;9.35;53.87;100566.59;5021467;28;45525;-85
2021/12/02 09:19:20;;;;;;;;;6.00;5.00;;;;;9.66;54.04;100601.59;5019649;28;45459;-85
2021/12/02 09:21:46;;;;;;;;;3.33;3.33;;;;;9.72;53.65;100604.00;5021600;28;45486;-85
2021/12/02 09:24:12;;;;;;;;;4.67;4.33;;;;;9.64;53.93;100584.84;5026784;28;45514;-86
2021/12/02 09:26:38;;;;;;;;;3.33;2.00;;;;;9.62;53.68;100565.44;5024557;28;45472;-86
2021/12/02 09:29:05;;;;;;;;;4.67;3.33;;;;;9.92;53.42;100599.63;5024294;28;46148;-86
2021/12/02 09:31:31;;;;;;;;;4.67;4.00;;;;;9.97;53.49;100607.41;5024962;28;45476;-85
2021/12/02 09:33:57;;;;;;;;;3.00;3.00;;;;;10.01;52.94;100603.69;5024850;28;45354;-85
2021/12/02 09:36:22;;;;;;;;;3.00;3.00;;;;;10.03;53.46;100605.34;5023497;28;45562;-86
2021/12/02 09:38:48;;;;;;;;;3.00;2.00;;;;;9.83;52.84;100576.94;5030315;28;46580;-85
2021/12/02 09:41:13;;;;;;;;;4.00;4.00;;;;;9.49;53.08;100526.97;5021609;28;45329;-84
2021/12/02 09:43:40;;;;;;;;;3.33;3.00;;;;;10.12;52.74;100622.72;5025903;28;45593;-86
2021/12/02 09:46:05;;;;;;;;;3.67;2.67;;;;;9.90;53.14;100577.53;5017707;28;45536;-86
2021/12/02 09:48:32;;;;;;;;;4.00;3.67;;;;;10.19;53.24;100613.53;5024799;28;45924;-86
2021/12/02 09:51:07;;;;;;;;;2.67;1.33;;;;;10.23;52.54;100608.94;5025802;28;45570;-87
2021/12/02 09:53:38;;;;;;;;;3.33;1.00;;;;;10.44;52.13;100629.34;5023724;28;45404;-87
2021/12/02 09:56:12;;;;;;;;;2.33;2.33;;;;;10.23;52.63;100596.50;5027082;28;45539;-85
2021/12/02 09:58:37;;;;;;;;;3.33;2.00;;;;;10.21;52.06;100595.69;5022156;28;46184;-86
2021/12/02 10:01:08;;;;;;;;;3.33;2.00;;;;;10.31;52.37;100621.00;5021722;28;45492;-86
2021/12/02 10:03:39;;;;;;;;;3.33;1.67;;;;;10.32;51.90;100633.41;5020670;28;45595;-86
2021/12/02 10:06:10;;;;;;;;;2.67;2.67;;;;;10.25;51.70;100637.22;5026633;28;45535;-85
2021/12/02 10:09:07;;;;;;;;;1.33;1.33;;;;;10.25;52.03;100634.56;5029381;28;46593;-86
2021/12/02 10:14:16;;;;;;;;;2.67;1.00;;;;;10.11;51.35;100611.22;5031410;28;45595;-85
2021/12/02 10:16:45;;;;;;;;;4.67;3.33;;;;;10.25;51.72;100647.88;5020182;28;45634;-83
2021/12/02 10:19:13;;;;;;;;;1.00;0.67;;;;;10.14;51.65;100631.53;5022036;28;46089;-82
2021/12/02 10:22:24;;;;;;;;;1.00;1.00;;;;;10.24;51.25;100651.50;5023938;28;45813;-82
2021/12/02 10:24:30;;;;;;;;;2.00;2.00;;;;;10.04;51.65;100614.19;5015441;28;45491;-83
2021/12/02 10:27:00;;;;;;;;;2.67;2.67;;;;;10.25;51.99;100649.69;5021718;28;45473;-82
2021/12/02 10:29:34;;;;;;;;;2.00;1.00;;;;;10.22;51.87;100649.81;5025747;28;45416;-83
2021/12/02 10:32:13;;;;;;;;;2.00;2.00;;;;;10.21;51.62;100656.06;5010938;28;45421;-79
2021/12/02 10:34:55;;;;;;;;;5.00;2.67;;;;;10.21;51.20;100648.97;5020993;28;45670;-80
2021/12/02 10:37:29;;;;;;;;;2.00;2.00;;;;;10.24;51.35;100651.50;5018214;28;45361;-80
2021/12/02 10:40:03;;;;;;;;;3.00;1.00;;;;;10.21;51.19;100648.06;5020894;28;46345;-81
2021/12/02 10:42:31;;;;;;;;;2.00;1.67;;;;;10.20;51.29;100639.22;5011305;28;45940;-80
2021/12/02 10:45:00;;;;;;;;;2.00;2.00;;;;;10.21;51.40;100643.63;5017474;28;45533;-81
2021/12/02 10:47:27;;;;;;;;;2.00;1.00;;;;;10.04;51.28;100609.72;5016813;28;45540;-80
2021/12/02 10:49:58;;;;;;;;;3.00;3.00;;;;;10.26;51.12;100635.44;5024072;28;47100;-81
2021/12/02 10:52:30;;;;;;;;;1.67;1.67;;;;;10.25;51.13;100629.22;5020863;28;45427;-80
2021/12/02 10:55:10;;;;;;;;;2.67;2.00;;;;;9.77;50.01;100531.97;5019595;28;45450;-80
2021/12/02 10:57:38;;;;;;;;;1.00;1.00;;;;;10.44;50.56;100626.69;5019590;28;45555;-81
2021/12/02 11:00:16;;;;;;;;;1.00;1.00;;;;;10.49;50.41;100634.47;5021617;28;45622;-81
2021/12/02 11:02:48;;;;;;;;;3.33;2.33;;;;;10.54;50.24;100630.63;5014907;28;45784;-81
2021/12/02 11:05:28;;;;;;;;;3.33;1.00;;;;;10.35;49.64;100568.47;5020247;28;45501;-82
2021/12/02 11:07:56;;;;;;;;;3.00;3.00;;;;;10.59;49.08;100609.09;5019128;28;46421;-82
2021/12/02 11:10:23;;;;;;;;;2.00;1.00;;;;;10.60;48.41;100613.50;5023631;28;45629;-82
2021/12/02 11:12:51;;;;;;;;;5.00;2.00;;;;;10.59;48.17;100616.25;5017600;28;46498;-82
2021/12/02 11:15:19;;;;;;;;;3.00;1.00;;;;;10.56;47.26;100634.09;5022654;28;45474;-82
2021/12/02 11:17:53;;;;;;;;;0.00;0.00;;;;;10.32;47.31;100593.47;5034555;28;45408;-82
2021/12/02 11:20:22;;;;;;;;;0.00;0.00;;;;;10.46;46.67;100621.25;5028160;28;46174;-81
2021/12/02 11:22:54;;;;;;;;;0.33;0.33;;;;;10.41;46.00;100626.78;5025711;28;45569;-82
2021/12/02 11:25:19;;;;;;;;;0.00;0.00;;;;;10.18;46.39;100586.97;5025867;28;45801;-81
2021/12/02 11:27:48;;;;;;;;;0.33;0.00;;;;;10.29;46.12;100598.91;5030111;28;45463;-80
2021/12/02 11:30:37;;;;;;;;;0.00;0.00;;;;;10.06;46.05;100575.06;5027921;28;45422;-81
2021/12/02 11:33:04;;;;;;;;;2.67;0.67;;;;;10.32;45.72;100620.09;5018596;28;45570;-80
2021/12/02 11:35:37;;;;;;;;;2.00;0.67;;;;;10.32;46.74;100624.53;5029078;28;45429;-86
2021/12/02 11:38:21;;;;;;;;;1.00;0.00;;;;;10.34;45.92;100617.34;5020981;28;45521;-84
2021/12/02 11:40:58;;;;;;;;;0.00;0.00;;;;;10.39;46.25;100615.31;5028595;28;46105;-85
2021/12/02 11:43:29;;;;;;;;;0.00;0.00;;;;;10.44;45.05;100613.34;5021516;28;45376;-85
2021/12/02 11:45:57;;;;;;;;;0.67;0.00;;;;;10.46;45.69;100611.44;5023351;28;45452;-84
2021/12/02 11:48:25;;;;;;;;;1.67;0.00;;;;;10.37;45.74;100601.22;5029762;28;45484;-84
2021/12/02 11:50:54;;;;;;;;;0.00;0.00;;;;;10.23;45.63;100571.63;5027945;28;45543;-86
2021/12/02 11:53:22;;;;;;;;;0.00;0.00;;;;;10.50;45.70;100602.41;5020599;28;45717;-84
2021/12/02 11:55:54;;;;;;;;;1.00;1.00;;;;;10.45;46.06;100576.91;5023107;28;45634;-84
2021/12/02 11:58:20;;;;;;;;;0.00;0.00;;;;;10.24;45.54;100526.28;5019217;28;45566;-84
2021/12/02 12:00:46;;;;;;;;;0.00;0.00;;;;;10.65;45.10;100584.84;5021428;28;45859;-85
2021/12/02 12:03:15;;;;;;;;;0.00;0.00;;;;;10.77;45.47;100596.75;5019591;28;45224;-85
2021/12/02 12:05:54;;;;;;;;;0.00;0.00;;;;;10.81;45.11;100587.63;5017527;28;45529;-85
2021/12/02 12:08:40;;;;;;;;;2.00;2.00;;;;;10.84;45.34;100583.97;5016621;28;45463;-85
2021/12/02 12:11:21;;;;;;;;;0.00;0.00;;;;;10.88;44.72;100570.41;5019240;28;45535;-86
2021/12/02 12:14:02;;;;;;;;;2.00;0.33;;;;;10.89;45.12;100584.63;5020322;28;45421;-86
2021/12/02 12:16:34;;;;;;;;;0.00;0.00;;;;;10.92;44.98;100592.47;5019779;28;45164;-87
2021/12/02 12:19:16;;;;;;;;;1.00;1.00;;;;;10.60;44.43;100543.34;5020252;28;45441;-84
2021/12/02 12:21:47;;;;;;;;;0.00;0.00;;;;;10.98;45.05;100598.38;5019476;28;45515;-85
2021/12/02 12:24:15;;;;;;;;;0.00;0.00;;;;;10.91;45.04;100580.06;5016462;28;45486;-85
2021/12/02 12:26:44;;;;;;;;;2.00;1.00;;;;;11.01;44.81;100583.19;5027753;28;45443;-86
2021/12/02 12:29:10;;;;;;;;;1.00;1.00;;;;;11.12;44.39;100597.72;5032952;28;45639;-85
2021/12/02 12:32:03;;;;;;;;;0.33;0.33;;;;;11.19;44.44;100596.50;5030381;28;46514;-86
2021/12/02 12:34:34;;;;;;;;;0.00;0.00;;;;;11.24;44.73;100587.38;5018694;28;45310;-85
2021/12/02 12:37:28;;;;;;;;;2.67;1.67;;;;;11.30;44.84;100595.94;5025871;28;45476;-85
2021/12/02 12:40:12;;;;;;;;;2.00;1.00;;;;;11.33;45.54;100593.16;5011825;28;45321;-84
2021/12/02 12:42:41;;;;;;;;;0.33;0.33;;;;;11.29;43.92;100591.56;5037602;28;45542;-85
2021/12/02 12:45:09;;;;;;;;;0.00;0.00;;;;;10.88;42.53;100525.09;5024189;28;45510;-85
2021/12/02 12:47:41;;;;;;;;;0.00;0.00;;;;;11.23;42.78;100596.31;5023273;28;45688;-85
2021/12/02 12:50:32;;;;;;;;;2.33;1.00;;;;;11.18;43.61;100594.75;5021416;28;45508;-85
2021/12/02 12:53:03;;;;;;;;;3.00;1.00;;;;;11.20;42.62;100598.19;5027381;28;46436;-84
2021/12/02 12:55:30;;;;;;;;;0.67;0.67;;;;;11.27;43.39;100605.91;5026658;28;45456;-85
2021/12/02 12:58:07;;;;;;;;;0.00;0.00;;;;;11.33;42.16;100608.25;5027848;28;45420;-83
2021/12/02 13:00:44;;;;;;;;;0.00;0.00;;;;;11.24;41.30;100579.38;5029375;28;45671;-86
2021/12/02 13:03:15;;;;;;;;;0.00;0.00;;;;;11.19;41.43;100567.13;5029214;28;48252;-87
2021/12/02 13:05:54;;;;;;;;;0.67;0.00;;;;;11.46;40.92;100603.19;5024395;28;45367;-85
2021/12/02 13:08:22;;;;;;;;;1.00;0.00;;;;;11.48;42.31;100596.00;5018235;28;45621;-85
2021/12/02 13:10:59;;;;;;;;;2.00;0.00;;;;;11.60;41.06;100601.56;5026659;28;45368;-86
2021/12/02 13:13:28;;;;;;;;;2.67;0.00;;;;;11.50;40.34;100586.09;5028560;28;45426;-86
2021/12/02 13:16:09;;;;;;;;;1.00;0.00;;;;;11.38;41.86;100559.09;5023047;28;45318;-87
2021/12/02 13:18:38;;;;;;;;;3.00;0.67;;;;;11.40;40.66;100549.19;5023525;28;45518;-85
2021/12/02 13:24:14;;;;;;;;;0.00;0.00;;;;;11.51;40.18;100564.66;5021184;28;45512;-81
2021/12/02 13:26:59;;;;;;;;;29.33;24.00;;;;;11.88;40.67;100615.38;5018629;28;45859;-79
2021/12/02 13:29:30;;;;;;;;;1.00;1.00;;;;;11.88;40.61;100610.03;5022490;28;45576;-81
2021/12/02 13:32:03;;;;;;;;;0.00;0.00;;;;;11.92;39.34;100617.81;5019040;28;45405;-80
2021/12/02 13:34:30;;;;;;;;;3.67;3.00;;;;;11.96;40.85;100624.72;5022429;28;46237;-81
2021/12/02 13:37:00;;;;;;;;;0.67;0.67;;;;;11.96;40.44;100616.72;5021074;28;45507;-81
2021/12/02 13:39:26;;;;;;;;;0.33;0.00;;;;;12.02;40.26;100619.03;5018914;28;45412;-79
2021/12/02 13:42:06;;;;;;;;;0.00;0.00;;;;;12.06;39.50;100625.09;5019596;28;45757;-79
2021/12/02 13:47:35;;;;;;;;;1.00;0.00;;;;;12.13;39.46;100636.34;5022087;28;46481;-80
2021/12/02 13:50:04;;;;;;;;;2.00;0.00;;;;;12.11;38.85;100622.19;5018356;28;45554;-81
2021/12/02 13:55:06;;;;;;;;;0.00;0.00;;;;;12.01;38.88;100636.03;5026675;28;45499;-81
2021/12/02 13:57:37;;;;;;;;;0.67;0.33;;;;;11.95;39.40;100639.00;5010175;28;45395;-80
2021/12/02 14:00:27;;;;;;;;;3.00;1.67;;;;;11.90;39.71;100632.19;5019221;28;45487;-79
2021/12/02 14:03:00;;;;;;;;;1.00;1.00;;;;;11.73;40.27;100616.94;5020179;28;46522;-79
2021/12/02 14:05:27;;;;;;;;;0.67;0.67;;;;;11.74;39.67;100632.03;5013044;28;46140;-79
2021/12/02 14:07:55;;;;;;;;;2.00;2.00;;;;;11.58;39.38;100613.25;5021242;28;45542;-82
2021/12/02 14:10:23;;;;;;;;;1.00;1.00;;;;;11.64;39.49;100644.16;5014844;28;45827;-81
2021/12/02 14:12:52;;;;;;;;;3.00;1.00;;;;;11.62;40.77;100649.53;5021101;28;45488;-81
2021/12/02 14:15:23;;;;;;;;;1.00;1.00;;;;;11.48;40.21;100626.19;5022948;28;46628;-84
2021/12/02 14:17:57;;;;;;;;;1.00;1.00;;;;;11.51;40.19;100649.22;5026173;28;45444;-78
2021/12/02 14:20:44;;;;;;;;;0.67;0.00;;;;;10.96;40.63;100567.41;5026106;28;45452;-78
2021/12/02 14:23:16;;;;;;;;;1.00;1.00;;;;;11.30;40.27;100640.44;5018916;28;45492;-83
2021/12/02 14:25:47;;;;;;;;;0.00;0.00;;;;;11.36;40.26;100659.69;5024018;28;46197;-81
2021/12/02 14:28:29;;;;;;;;;3.00;1.00;;;;;11.30;40.32;100670.66;5018358;28;45622;-81
2021/12/02 14:31:06;;;;;;;;;0.00;0.00;;;;;11.09;40.58;100648.53;5015871;28;45476;-82
2021/12/02 14:33:38;;;;;;;;;1.00;1.00;;;;;11.20;40.84;100674.72;5015256;28;45348;-82
2021/12/02 14:36:09;;;;;;;;;1.00;1.00;;;;;11.16;41.28;100671.31;5022923;28;45384;-82
2021/12/02 14:38:40;;;;;;;;;1.00;1.00;;;;;11.15;41.00;100685.59;5023824;28;45932;-81
2021/12/02 14:41:10;;;;;;;;;1.00;1.00;;;;;10.89;41.52;100649.47;5016654;28;45757;-81
2021/12/02 14:43:35;;;;;;;;;1.33;1.33;;;;;11.12;41.80;100690.19;5018172;28;45845;-82
2021/12/02 14:46:33;;;;;;;;;2.00;1.00;;;;;11.08;41.68;100686.81;5024233;28;45996;-81
2021/12/02 14:49:07;;;;;;;;;1.00;1.00;;;;;11.07;42.11;100698.41;5016962;28;45534;-79
2021/12/02 14:51:44;;;;;;;;;4.00;2.00;;;;;11.04;42.35;100697.69;5025548;28;45396;-80
2021/12/02 14:54:10;;;;;;;;;1.00;1.00;;;;;11.03;41.99;100704.84;5026043;28;45501;-81
2021/12/02 14:56:40;;;;;;;;;6.00;6.00;;;;;10.99;42.71;100703.25;5021379;28;45981;-81
2021/12/02 14:59:20;;;;;;;;;14.00;13.67;;;;;10.90;42.68;100699.19;5022032;28;45516;-81
2021/12/02 15:02:06;;;;;;;;;2.00;2.00;;;;;10.94;42.57;100715.94;5024254;28;45576;-82
2021/12/02 15:04:39;;;;;;;;;1.00;1.00;;;;;10.66;42.91;100679.00;5019425;28;45404;-80
2021/12/02 15:07:08;;;;;;;;;3.00;1.67;;;;;10.90;43.50;100714.34;5016957;28;45666;-81
2021/12/02 15:09:42;;;;;;;;;2.00;2.00;;;;;10.87;43.11;100723.34;5020925;28;45301;-84
2021/12/02 15:12:33;;;;;;;;;2.67;2.00;;;;;10.53;44.08;100682.19;5022871;28;45486;-82
2021/12/02 15:14:59;;;;;;;;;2.33;0.33;;;;;10.87;43.98;100742.00;5030884;28;45497;-79
2021/12/02 15:17:47;;;;;;;;;8.00;3.33;;;;;10.81;43.55;100734.28;5019430;28;46245;-80
2021/12/02 15:20:15;;;;;;;;;14.00;11.67;;;;;10.86;43.84;100755.41;4999493;28;46318;-80
2021/12/02 15:22:53;;;;;;;;;3.67;2.33;;;;;10.84;43.70;100754.59;5023342;28;45803;-79
2021/12/02 15:25:24;;;;;;;;;2.00;2.00;;;;;10.83;43.73;100760.88;5022148;28;45389;-80
2021/12/02 15:27:55;;;;;;;;;1.00;1.00;;;;;10.80;44.01;100769.88;5026929;28;46339;-79
2021/12/02 15:30:20;;;;;;;;;1.33;1.33;;;;;10.77;44.01;100767.34;5022411;28;45982;-79
2021/12/02 15:32:46;;;;;;;;;2.00;2.00;;;;;10.76;44.30;100773.59;5025327;28;45930;-79
2021/12/02 15:35:11;;;;;;;;;6.67;3.00;;;;;10.65;44.70;100766.09;5029878;28;45922;-80
2021/12/02 15:37:37;;;;;;;;;1.00;1.00;;;;;10.50;44.44;100746.28;5024349;28;47655;-80
2021/12/02 15:40:03;;;;;;;;;3.00;1.00;;;;;10.68;44.56;100784.63;5018752;28;45234;-80
2021/12/02 15:42:28;;;;;;;;;2.67;2.67;;;;;10.65;44.77;100779.44;5020450;28;45464;-80
2021/12/02 15:44:54;;;;;;;;;3.67;2.00;;;;;10.71;45.06;100805.78;5017272;28;45396;-81
2021/12/02 15:47:19;;;;;;;;;1.00;1.00;;;;;10.71;45.20;100810.25;5023151;28;45702;-80
2021/12/02 15:49:48;;;;;;;;;1.67;1.67;;;;;10.65;45.48;100807.84;5012638;28;45378;-80
2021/12/02 15:52:15;;;;;;;;;6.00;2.00;;;;;10.65;45.22;100814.06;5017610;28;45452;-82
2021/12/02 15:54:40;;;;;;;;;3.00;2.00;;;;;10.65;44.93;100824.75;5018080;28;45412;-80
2021/12/02 15:57:05;;;;;;;;;2.00;2.00;;;;;10.49;44.90;100799.66;5024890;28;52126;-80
2021/12/02 15:59:36;;;;;;;;;2.00;2.00;;;;;10.51;45.31;100805.78;5019417;28;45393;-79
2021/12/02 16:02:11;;;;;;;;;4.67;3.00;;;;;10.35;45.48;100784.25;5023478;28;45527;-82
2021/12/02 16:04:40;;;;;;;;;2.67;1.00;;;;;10.49;45.40;100826.31;5030778;28;45806;-80
2021/12/02 16:07:11;;;;;;;;;2.00;2.00;;;;;10.38;45.15;100799.25;5028374;28;48160;-82
2021/12/02 16:12:38;;;;;;;;;3.00;2.00;;;;;10.49;45.09;100835.19;5025185;28;45602;-83
2021/12/02 16:15:08;;;;;;;;;6.00;3.00;;;;;10.28;45.49;100804.97;5021324;28;45521;-78
2021/12/02 16:17:35;;;;;;;;;2.67;1.67;;;;;10.56;46.16;100865.09;5039631;28;46838;-75
2021/12/02 16:20:00;;;;;;;;;2.00;2.00;;;;;10.52;46.24;100850.16;5021566;28;45582;-78
2021/12/02 16:22:28;;;;;;;;;2.00;2.00;;;;;10.36;46.30;100820.63;5021179;28;45431;-78
2021/12/02 16:24:56;;;;;;;;;3.00;3.00;;;;;10.76;45.77;100866.91;5021534;28;45563;-76
2021/12/02 16:27:23;;;;;;;;;4.00;4.00;;;;;10.60;45.97;100865.81;5025155;28;46239;-78
2021/12/02 16:29:49;;;;;;;;;2.67;2.67;;;;;10.12;45.62;100815.34;5025537;28;45418;-81
2021/12/02 16:32:14;;;;;;;;;2.00;2.00;;;;;10.53;45.52;100851.88;5021761;28;45543;-80
2021/12/02 16:34:40;;;;;;;;;3.00;2.33;;;;;10.55;44.86;100842.91;5029112;28;45562;-80
2021/12/02 16:37:05;;;;;;;;;4.67;3.00;;;;;10.72;44.99;100867.97;5026030;28;46218;-80
2021/12/02 16:39:34;;;;;;;;;2.00;2.00;;;;;10.78;44.58;100879.25;5029321;28;45393;-80
2021/12/02 16:42:00;;;;;;;;;2.00;2.00;;;;;10.73;44.76;100875.06;5021737;28;45342;-81
2021/12/02 16:44:25;;;;;;;;;2.67;2.67;;;;;10.58;44.85;100844.56;5029454;28;45542;-82
2021/12/02 16:46:51;;;;;;;;;3.00;3.00;;;;;10.70;44.68;100872.50;5028184;28;45780;-82
2021/12/02 16:49:17;;;;;;;;;6.00;5.33;;;;;10.78;45.13;100889.06;5027029;28;45496;-83
2021/12/02 16:51:43;;;;;;;;;3.00;3.00;;;;;10.63;44.88;100879.91;5026305;28;45579;-82
2021/12/02 16:54:08;;;;;;;;;1.33;1.33;;;;;10.72;45.01;100897.28;5026780;28;45539;-83
2021/12/02 16:56:34;;;;;;;;;2.00;2.00;;;;;10.60;45.13;100885.34;5023913;28;45858;-82